sensor_id;sensor_type;location;lat;lon;timestamp;pressure;altitude;pressure_sealevel;temperature;humidity
10587;BME280;5341;47.606;7.576;2023-03-21T00:01:11;99056.69;;;13.61;54.09
10587;BME280;5341;47.606;7.576;2023-03-21T00:03:39;99060.41;;;13.60;54.09
10587;BME280;5341;47.606;7.576;2023-03-21T00:06:10;99055.22;;;13.58;54.17
10587;BME280;5341;47.606;7.576;2023-03-21T00:08:39;99058.75;;;13.59;54.13
10587;BME280;5341;47.606;7.576;2023-03-21T00:11:08;99054.41;;;13.58;54.14
10587;BME280;5341;47.606;7.576;2023-03-21T00:13:37;99056.41;;;13.56;54.13
10587;BME280;5341;47.606;7.576;2023-03-21T00:16:11;99055.78;;;13.54;54.06
10587;BME280;5341;47.606;7.576;2023-03-21T00:18:44;99060.53;;;13.52;54.04
10587;BME280;5341;47.606;7.576;2023-03-21T00:21:20;99058.03;;;13.50;53.98
10587;BME280;5341;47.606;7.576;2023-03-21T00:23:53;99055.56;;;13.48;54.27
10587;BME280;5341;47.606;7.576;2023-03-21T00:26:21;99052.88;;;13.48;54.22
10587;BME280;5341;47.606;7.576;2023-03-21T00:28:50;99054.72;;;13.48;54.21
10587;BME280;5341;47.606;7.576;2023-03-21T00:31:22;99046.84;;;13.46;54.17
10587;BME280;5341;47.606;7.576;2023-03-21T00:33:49;99047.06;;;13.45;54.06
10587;BME280;5341;47.606;7.576;2023-03-21T00:36:24;99038.13;;;13.44;54.00
10587;BME280;5341;47.606;7.576;2023-03-21T00:38:53;99039.34;;;13.42;53.79
10587;BME280;5341;47.606;7.576;2023-03-21T00:41:20;99046.78;;;13.40;53.75
10587;BME280;5341;47.606;7.576;2023-03-21T00:43:48;99039.94;;;13.37;53.98
10587;BME280;5341;47.606;7.576;2023-03-21T00:46:17;99033.94;;;13.35;53.77
10587;BME280;5341;47.606;7.576;2023-03-21T00:48:45;99022.75;;;13.32;53.78
10587;BME280;5341;47.606;7.576;2023-03-21T00:51:18;99016.94;;;13.28;53.94
10587;BME280;5341;47.606;7.576;2023-03-21T00:53:52;99019.63;;;13.28;53.91
10587;BME280;5341;47.606;7.576;2023-03-21T00:56:19;99021.47;;;13.28;53.84
10587;BME280;5341;47.606;7.576;2023-03-21T00:58:47;99023.53;;;13.26;53.89
10587;BME280;5341;47.606;7.576;2023-03-21T01:01:15;99014.63;;;13.25;53.82
10587;BME280;5341;47.606;7.576;2023-03-21T01:03:44;99016.69;;;13.23;54.03
10587;BME280;5341;47.606;7.576;2023-03-21T01:06:17;99019.56;;;13.22;53.83
10587;BME280;5341;47.606;7.576;2023-03-21T01:08:46;99018.75;;;13.21;53.87
10587;BME280;5341;47.606;7.576;2023-03-21T01:11:16;99020.75;;;13.19;53.76
10587;BME280;5341;47.606;7.576;2023-03-21T01:13:44;99013.06;;;13.16;53.65
10587;BME280;5341;47.606;7.576;2023-03-21T01:16:11;99011.41;;;13.15;53.59
10587;BME280;5341;47.606;7.576;2023-03-21T01:18:40;99014.28;;;13.13;53.91
10587;BME280;5341;47.606;7.576;2023-03-21T01:21:12;99015.50;;;13.11;53.93
10587;BME280;5341;47.606;7.576;2023-03-21T01:23:41;99014.69;;;13.10;53.89
10587;BME280;5341;47.606;7.576;2023-03-21T01:26:09;99004.13;;;13.09;54.07
10587;BME280;5341;47.606;7.576;2023-03-21T01:28:39;99008.84;;;13.07;53.72
10587;BME280;5341;47.606;7.576;2023-03-21T01:31:06;99006.56;;;13.04;53.93
10587;BME280;5341;47.606;7.576;2023-03-21T01:33:34;99000.53;;;13.02;53.62
10587;BME280;5341;47.606;7.576;2023-03-21T01:36:03;98998.06;;;13.00;53.77
10587;BME280;5341;47.606;7.576;2023-03-21T01:38:32;99005.47;;;12.98;53.83
10587;BME280;5341;47.606;7.576;2023-03-21T01:41:00;98994.28;;;12.95;53.78
10587;BME280;5341;47.606;7.576;2023-03-21T01:43:33;99008.72;;;12.94;53.51
10587;BME280;5341;47.606;7.576;2023-03-21T01:49:24;99000.41;;;12.88;53.63
10587;BME280;5341;47.606;7.576;2023-03-21T01:52:05;99000.63;;;12.87;53.69
10587;BME280;5341;47.606;7.576;2023-03-21T01:54:36;99002.66;;;12.85;53.77
10587;BME280;5341;47.606;7.576;2023-03-21T01:57:08;98998.28;;;12.84;53.57
10587;BME280;5341;47.606;7.576;2023-03-21T01:59:40;98986.91;;;12.82;53.48
10587;BME280;5341;47.606;7.576;2023-03-21T02:02:27;98984.44;;;12.80;53.67
10587;BME280;5341;47.606;7.576;2023-03-21T02:05:05;98981.94;;;12.79;53.63
10587;BME280;5341;47.606;7.576;2023-03-21T02:07:35;98974.09;;;12.77;53.48
10587;BME280;5341;47.606;7.576;2023-03-21T02:10:11;98984.19;;;12.75;53.75
10587;BME280;5341;47.606;7.576;2023-03-21T02:12:44;98971.97;;;12.73;53.63
10587;BME280;5341;47.606;7.576;2023-03-21T02:15:11;98972.97;;;12.72;53.48
10587;BME280;5341;47.606;7.576;2023-03-21T02:17:53;98977.50;;;12.71;53.37
10587;BME280;5341;47.606;7.576;2023-03-21T02:24:20;98978.09;;;12.67;53.55
10587;BME280;5341;47.606;7.576;2023-03-21T02:27:13;98980.97;;;12.65;53.64
10587;BME280;5341;47.606;7.576;2023-03-21T02:32:53;98979.03;;;12.59;53.40
10587;BME280;5341;47.606;7.576;2023-03-21T02:35:33;98977.38;;;12.58;53.55
10587;BME280;5341;47.606;7.576;2023-03-21T02:38:14;98976.75;;;12.56;53.70
10587;BME280;5341;47.606;7.576;2023-03-21T02:40:49;98984.97;;;12.54;53.33
10587;BME280;5341;47.606;7.576;2023-03-21T02:43:26;98969.28;;;12.51;53.40
10587;BME280;5341;47.606;7.576;2023-03-21T02:46:00;98970.28;;;12.50;53.35
10587;BME280;5341;47.606;7.576;2023-03-21T02:48:32;98974.19;;;12.48;53.70
10587;BME280;5341;47.606;7.576;2023-03-21T02:51:01;98972.50;;;12.47;53.64
10587;BME280;5341;47.606;7.576;2023-03-21T02:53:33;98972.50;;;12.47;53.15
10587;BME280;5341;47.606;7.576;2023-03-21T02:56:07;98968.16;;;12.46;53.59
10587;BME280;5341;47.606;7.576;2023-03-21T02:58:40;98963.00;;;12.44;53.15
10587;BME280;5341;47.606;7.576;2023-03-21T03:01:13;98966.06;;;12.41;53.13
10587;BME280;5341;47.606;7.576;2023-03-21T03:03:46;98960.88;;;12.40;53.43
10587;BME280;5341;47.606;7.576;2023-03-21T03:06:16;98964.59;;;12.39;53.05
10587;BME280;5341;47.606;7.576;2023-03-21T03:08:56;98961.28;;;12.37;53.54
10587;BME280;5341;47.606;7.576;2023-03-21T03:11:30;98962.25;;;12.36;53.43
10587;BME280;5341;47.606;7.576;2023-03-21T03:14:17;98963.28;;;12.35;53.04
10587;BME280;5341;47.606;7.576;2023-03-21T03:16:54;98962.66;;;12.32;53.41
10587;BME280;5341;47.606;7.576;2023-03-21T03:19:28;98955.19;;;12.28;52.93
10587;BME280;5341;47.606;7.576;2023-03-21T03:22:00;98952.69;;;12.26;53.02
10587;BME280;5341;47.606;7.576;2023-03-21T03:24:33;98955.56;;;12.25;53.07
10587;BME280;5341;47.606;7.576;2023-03-21T03:27:06;98955.72;;;12.23;53.39
10587;BME280;5341;47.606;7.576;2023-03-21T03:29:39;98958.59;;;12.22;53.26
10587;BME280;5341;47.606;7.576;2023-03-21T03:32:14;98952.78;;;12.18;53.22
10587;BME280;5341;47.606;7.576;2023-03-21T03:34:50;98949.47;;;12.16;53.14
10587;BME280;5341;47.606;7.576;2023-03-21T03:37:32;98946.78;;;12.16;53.19
10587;BME280;5341;47.606;7.576;2023-03-21T03:40:12;98947.16;;;12.13;52.94
10587;BME280;5341;47.606;7.576;2023-03-21T03:42:53;98951.88;;;12.11;53.10
10587;BME280;5341;47.606;7.576;2023-03-21T03:45:46;98948.53;;;12.09;53.00
10587;BME280;5341;47.606;7.576;2023-03-21T03:48:41;98940.50;;;12.09;53.47
10587;BME280;5341;47.606;7.576;2023-03-21T03:51:16;98948.53;;;12.09;53.38
10587;BME280;5341;47.606;7.576;2023-03-21T03:54:22;98939.66;;;12.09;53.17
10587;BME280;5341;47.606;7.576;2023-03-21T03:56:53;98935.34;;;12.08;52.76
10587;BME280;5341;47.606;7.576;2023-03-21T03:59:28;98945.22;;;12.07;52.79
10587;BME280;5341;47.606;7.576;2023-03-21T04:02:13;98942.53;;;12.07;53.46
10587;BME280;5341;47.606;7.576;2023-03-21T04:04:42;98935.72;;;12.05;53.48
10587;BME280;5341;47.606;7.576;2023-03-21T04:07:10;98935.91;;;12.03;52.98
10587;BME280;5341;47.606;7.576;2023-03-21T04:09:38;98942.28;;;12.02;53.17
10587;BME280;5341;47.606;7.576;2023-03-21T04:12:09;98940.81;;;11.99;52.95
10587;BME280;5341;47.606;7.576;2023-03-21T04:14:39;98942.63;;;11.99;53.14
10587;BME280;5341;47.606;7.576;2023-03-21T04:17:06;98937.28;;;11.99;53.11
10587;BME280;5341;47.606;7.576;2023-03-21T04:19:36;98936.44;;;11.98;53.06
10587;BME280;5341;47.606;7.576;2023-03-21T04:22:03;98945.31;;;11.99;53.70
10587;BME280;5341;47.606;7.576;2023-03-21T04:24:35;98947.16;;;11.98;53.43
10587;BME280;5341;47.606;7.576;2023-03-21T04:27:02;98940.34;;;11.96;53.01
10587;BME280;5341;47.606;7.576;2023-03-21T04:29:54;98947.53;;;11.95;53.25
10587;BME280;5341;47.606;7.576;2023-03-21T04:32:45;98940.53;;;11.94;53.23
10587;BME280;5341;47.606;7.576;2023-03-21T04:35:19;98946.06;;;11.93;53.33
10587;BME280;5341;47.606;7.576;2023-03-21T04:37:49;98948.94;;;11.91;53.57
10587;BME280;5341;47.606;7.576;2023-03-21T04:40:17;98937.41;;;11.91;53.54
10587;BME280;5341;47.606;7.576;2023-03-21T04:42:45;98942.94;;;11.89;53.36
10587;BME280;5341;47.606;7.576;2023-03-21T04:45:15;98941.28;;;11.88;53.35
10587;BME280;5341;47.606;7.576;2023-03-21T04:47:44;98937.09;;;11.86;52.80
10587;BME280;5341;47.606;7.576;2023-03-21T04:50:12;98941.63;;;11.85;52.79
10587;BME280;5341;47.606;7.576;2023-03-21T04:52:40;98939.16;;;11.84;53.16
10587;BME280;5341;47.606;7.576;2023-03-21T04:55:08;98934.81;;;11.83;53.04
10587;BME280;5341;47.606;7.576;2023-03-21T04:57:37;98935.81;;;11.82;53.07
10587;BME280;5341;47.606;7.576;2023-03-21T05:00:06;98931.50;;;11.81;52.90
10587;BME280;5341;47.606;7.576;2023-03-21T05:02:38;98929.81;;;11.80;52.84
10587;BME280;5341;47.606;7.576;2023-03-21T05:05:06;98935.53;;;11.77;52.97
10587;BME280;5341;47.606;7.576;2023-03-21T05:07:36;98938.22;;;11.77;53.37
10587;BME280;5341;47.606;7.576;2023-03-21T05:10:04;98940.06;;;11.76;53.09
10587;BME280;5341;47.606;7.576;2023-03-21T05:12:32;98941.06;;;11.75;52.79
10587;BME280;5341;47.606;7.576;2023-03-21T05:15:02;98942.06;;;11.74;53.01
10587;BME280;5341;47.606;7.576;2023-03-21T05:17:35;98944.09;;;11.72;53.02
10587;BME280;5341;47.606;7.576;2023-03-21T05:20:05;98939.78;;;11.71;52.70
10587;BME280;5341;47.606;7.576;2023-03-21T05:22:34;98938.28;;;11.68;53.30
10587;BME280;5341;47.606;7.576;2023-03-21T05:25:09;98934.16;;;11.66;52.87
10587;BME280;5341;47.606;7.576;2023-03-21T05:27:56;98937.00;;;11.64;52.75
10587;BME280;5341;47.606;7.576;2023-03-21T05:30:29;98933.66;;;11.62;52.91
10587;BME280;5341;47.606;7.576;2023-03-21T05:32:59;98936.53;;;11.61;52.91
10587;BME280;5341;47.606;7.576;2023-03-21T05:35:28;98928.88;;;11.58;53.47
10587;BME280;5341;47.606;7.576;2023-03-21T05:37:59;98927.22;;;11.57;53.28
10587;BME280;5341;47.606;7.576;2023-03-21T05:40:30;98924.53;;;11.57;53.74
10587;BME280;5341;47.606;7.576;2023-03-21T05:43:02;98923.88;;;11.55;53.22
10587;BME280;5341;47.606;7.576;2023-03-21T05:45:32;98925.75;;;11.54;53.75
10587;BME280;5341;47.606;7.576;2023-03-21T05:48:00;98934.59;;;11.55;53.98
10587;BME280;5341;47.606;7.576;2023-03-21T05:50:33;98926.56;;;11.55;53.68
10587;BME280;5341;47.606;7.576;2023-03-21T05:53:08;98924.72;;;11.55;53.73
10587;BME280;5341;47.606;7.576;2023-03-21T05:55:36;98920.19;;;11.56;53.47
10587;BME280;5341;47.606;7.576;2023-03-21T05:58:06;98921.03;;;11.56;53.63
10587;BME280;5341;47.606;7.576;2023-03-21T06:00:34;98915.47;;;11.58;53.30
10587;BME280;5341;47.606;7.576;2023-03-21T06:03:21;98914.66;;;11.57;54.07
10587;BME280;5341;47.606;7.576;2023-03-21T06:06:18;98914.47;;;11.59;53.41
10587;BME280;5341;47.606;7.576;2023-03-21T06:08:58;98913.44;;;11.60;53.28
10587;BME280;5341;47.606;7.576;2023-03-21T06:11:30;98910.75;;;11.60;53.86
10587;BME280;5341;47.606;7.576;2023-03-21T06:14:19;98916.94;;;11.60;53.24
10587;BME280;5341;47.606;7.576;2023-03-21T06:17:13;98913.25;;;11.61;53.77
10587;BME280;5341;47.606;7.576;2023-03-21T06:19:52;98910.38;;;11.63;53.81
10587;BME280;5341;47.606;7.576;2023-03-21T06:22:30;98907.56;;;11.64;53.53
10587;BME280;5341;47.606;7.576;2023-03-21T06:24:59;98906.34;;;11.67;53.94
10587;BME280;5341;47.606;7.576;2023-03-21T06:27:27;98911.50;;;11.68;53.69
10587;BME280;5341;47.606;7.576;2023-03-21T06:29:55;98910.28;;;11.71;54.16
10587;BME280;5341;47.606;7.576;2023-03-21T06:32:23;98900.22;;;11.73;53.55
10587;BME280;5341;47.606;7.576;2023-03-21T06:34:55;98902.56;;;11.76;53.56
10587;BME280;5341;47.606;7.576;2023-03-21T06:37:25;98905.72;;;11.80;54.16
10587;BME280;5341;47.606;7.576;2023-03-21T06:39:57;98905.53;;;11.81;54.30
10587;BME280;5341;47.606;7.576;2023-03-21T06:42:24;98907.00;;;11.84;54.02
10587;BME280;5341;47.606;7.576;2023-03-21T06:44:58;98905.78;;;11.86;54.06
10587;BME280;5341;47.606;7.576;2023-03-21T06:47:26;98914.50;;;11.88;54.10
10587;BME280;5341;47.606;7.576;2023-03-21T06:49:53;98908.94;;;11.90;54.16
10587;BME280;5341;47.606;7.576;2023-03-21T06:52:23;98915.78;;;11.92;53.76
10587;BME280;5341;47.606;7.576;2023-03-21T06:54:53;98913.91;;;11.93;54.01
10587;BME280;5341;47.606;7.576;2023-03-21T06:57:24;98910.03;;;11.95;54.19
10587;BME280;5341;47.606;7.576;2023-03-21T06:59:51;98905.31;;;11.97;54.38
10587;BME280;5341;47.606;7.576;2023-03-21T07:02:21;98911.34;;;11.99;54.25
10587;BME280;5341;47.606;7.576;2023-03-21T07:05:07;98910.94;;;12.02;54.07
10587;BME280;5341;47.606;7.576;2023-03-21T07:07:35;98908.91;;;12.05;54.17
10587;BME280;5341;47.606;7.576;2023-03-21T07:10:03;98902.53;;;12.06;54.56
10587;BME280;5341;47.606;7.576;2023-03-21T07:12:41;98895.94;;;12.08;53.93
10587;BME280;5341;47.606;7.576;2023-03-21T07:15:19;98900.09;;;12.11;54.54
10587;BME280;5341;47.606;7.576;2023-03-21T07:17:47;98900.56;;;12.14;54.12
10587;BME280;5341;47.606;7.576;2023-03-21T07:20:14;98899.34;;;12.17;54.20
10587;BME280;5341;47.606;7.576;2023-03-21T07:22:41;98897.13;;;12.20;54.31
10587;BME280;5341;47.606;7.576;2023-03-21T07:25:09;98895.06;;;12.22;54.40
10587;BME280;5341;47.606;7.576;2023-03-21T07:27:38;98887.69;;;12.24;54.32
10587;BME280;5341;47.606;7.576;2023-03-21T07:30:09;98884.44;;;12.29;54.60
10587;BME280;5341;47.606;7.576;2023-03-21T07:32:38;98879.72;;;12.31;54.29
10587;BME280;5341;47.606;7.576;2023-03-21T07:35:06;98882.84;;;12.35;54.36
10587;BME280;5341;47.606;7.576;2023-03-21T07:37:34;98886.19;;;12.37;54.49
10587;BME280;5341;47.606;7.576;2023-03-21T07:40:02;98885.16;;;12.38;54.30
10587;BME280;5341;47.606;7.576;2023-03-21T07:42:35;98884.97;;;12.39;54.19
10587;BME280;5341;47.606;7.576;2023-03-21T07:45:02;98889.09;;;12.42;54.54
10587;BME280;5341;47.606;7.576;2023-03-21T07:47:34;98897.78;;;12.44;54.58
10587;BME280;5341;47.606;7.576;2023-03-21T07:50:03;98886.66;;;12.47;54.45
10587;BME280;5341;47.606;7.576;2023-03-21T07:52:30;98892.50;;;12.50;54.52
10587;BME280;5341;47.606;7.576;2023-03-21T07:54:58;98900.34;;;12.52;54.70
10587;BME280;5341;47.606;7.576;2023-03-21T07:57:25;98904.69;;;12.53;54.33
10587;BME280;5341;47.606;7.576;2023-03-21T07:59:52;98908.00;;;12.55;54.59
10587;BME280;5341;47.606;7.576;2023-03-21T08:02:20;98908.66;;;12.57;54.69
10587;BME280;5341;47.606;7.576;2023-03-21T08:04:49;98911.97;;;12.59;54.48
10587;BME280;5341;47.606;7.576;2023-03-21T08:07:16;98920.47;;;12.63;54.70
10587;BME280;5341;47.606;7.576;2023-03-21T08:09:43;98919.25;;;12.65;54.31
10587;BME280;5341;47.606;7.576;2023-03-21T08:12:11;98914.34;;;12.69;54.36
10587;BME280;5341;47.606;7.576;2023-03-21T08:14:38;98919.16;;;12.73;54.52
10587;BME280;5341;47.606;7.576;2023-03-21T08:17:06;98913.19;;;12.78;54.59
10587;BME280;5341;47.606;7.576;2023-03-21T08:19:34;98917.13;;;12.82;54.44
10587;BME280;5341;47.606;7.576;2023-03-21T08:22:03;98908.88;;;12.83;54.40
10587;BME280;5341;47.606;7.576;2023-03-21T08:24:31;98916.38;;;12.88;54.63
10587;BME280;5341;47.606;7.576;2023-03-21T08:26:59;98914.97;;;12.92;54.68
10587;BME280;5341;47.606;7.576;2023-03-21T08:29:27;98921.44;;;12.98;54.59
10587;BME280;5341;47.606;7.576;2023-03-21T08:31:54;98918.53;;;12.99;54.32
10587;BME280;5341;47.606;7.576;2023-03-21T08:34:22;98918.97;;;13.03;54.54
10587;BME280;5341;47.606;7.576;2023-03-21T08:36:51;98915.69;;;13.07;54.32
10587;BME280;5341;47.606;7.576;2023-03-21T08:39:20;98913.47;;;13.11;54.36
10587;BME280;5341;47.606;7.576;2023-03-21T08:41:49;98916.19;;;13.17;54.22
10587;BME280;5341;47.606;7.576;2023-03-21T08:44:17;98921.03;;;13.22;54.05
10587;BME280;5341;47.606;7.576;2023-03-21T08:46:45;98923.13;;;13.27;54.38
10587;BME280;5341;47.606;7.576;2023-03-21T08:49:12;98921.69;;;13.31;53.98
10587;BME280;5341;47.606;7.576;2023-03-21T08:51:39;98919.28;;;13.36;53.99
10587;BME280;5341;47.606;7.576;2023-03-21T08:54:17;98915.78;;;13.42;54.03
10587;BME280;5341;47.606;7.576;2023-03-21T08:56:47;98901.59;;;13.48;54.16
10587;BME280;5341;47.606;7.576;2023-03-21T08:59:14;98902.63;;;13.54;53.94
10587;BME280;5341;47.606;7.576;2023-03-21T09:01:41;98898.53;;;13.58;53.78
10587;BME280;5341;47.606;7.576;2023-03-21T09:04:09;98896.06;;;13.63;53.75
10587;BME280;5341;47.606;7.576;2023-03-21T09:06:37;98903.53;;;13.67;53.69
10587;BME280;5341;47.606;7.576;2023-03-21T09:09:06;98899.25;;;13.73;53.60
10587;BME280;5341;47.606;7.576;2023-03-21T09:11:34;98898.84;;;13.76;53.68
10587;BME280;5341;47.606;7.576;2023-03-21T09:14:03;98901.38;;;13.84;53.82
10587;BME280;5341;47.606;7.576;2023-03-21T09:16:30;98903.03;;;13.92;53.73
10587;BME280;5341;47.606;7.576;2023-03-21T09:18:58;98903.91;;;13.99;53.68
10587;BME280;5341;47.606;7.576;2023-03-21T09:21:26;98894.84;;;14.06;53.70
10587;BME280;5341;47.606;7.576;2023-03-21T09:23:55;98904.16;;;14.17;53.71
10587;BME280;5341;47.606;7.576;2023-03-21T09:26:25;98890.34;;;14.27;53.77
10587;BME280;5341;47.606;7.576;2023-03-21T09:28:58;98897.81;;;14.38;53.45
10587;BME280;5341;47.606;7.576;2023-03-21T09:31:38;98895.59;;;14.48;53.54
10587;BME280;5341;47.606;7.576;2023-03-21T09:34:09;98895.00;;;14.59;53.41
10587;BME280;5341;47.606;7.576;2023-03-21T09:36:38;98896.88;;;14.72;53.47
10587;BME280;5341;47.606;7.576;2023-03-21T09:39:07;98893.38;;;14.85;53.39
10587;BME280;5341;47.606;7.576;2023-03-21T09:41:53;98894.19;;;14.99;53.01
10587;BME280;5341;47.606;7.576;2023-03-21T09:44:41;98886.94;;;15.12;52.73
10587;BME280;5341;47.606;7.576;2023-03-21T09:47:19;98890.88;;;15.23;52.83
10587;BME280;5341;47.606;7.576;2023-03-21T09:49:58;98886.72;;;15.34;52.70
10587;BME280;5341;47.606;7.576;2023-03-21T09:52:31;98890.66;;;15.44;52.73
10587;BME280;5341;47.606;7.576;2023-03-21T09:55:00;98889.56;;;15.59;52.65
10587;BME280;5341;47.606;7.576;2023-03-21T09:57:34;98898.91;;;15.69;52.47
10587;BME280;5341;47.606;7.576;2023-03-21T10:00:05;98896.59;;;15.79;52.15
10587;BME280;5341;47.606;7.576;2023-03-21T10:02:43;98898.03;;;15.89;52.04
10587;BME280;5341;47.606;7.576;2023-03-21T10:05:16;98889.28;;;16.00;51.81
10587;BME280;5341;47.606;7.576;2023-03-21T10:07:49;98891.28;;;16.11;51.80
10587;BME280;5341;47.606;7.576;2023-03-21T10:10:21;98885.84;;;16.24;51.85
10587;BME280;5341;47.606;7.576;2023-03-21T10:12:49;98890.75;;;16.34;51.90
10587;BME280;5341;47.606;7.576;2023-03-21T10:15:20;98887.59;;;16.44;52.12
10587;BME280;5341;47.606;7.576;2023-03-21T10:17:58;98883.38;;;16.54;51.44
10587;BME280;5341;47.606;7.576;2023-03-21T10:20:34;98893.47;;;16.65;51.49
10587;BME280;5341;47.606;7.576;2023-03-21T10:23:04;98884.47;;;16.78;51.14
10587;BME280;5341;47.606;7.576;2023-03-21T10:25:34;98881.06;;;16.89;50.86
10587;BME280;5341;47.606;7.576;2023-03-21T10:28:20;98876.63;;;17.02;50.87
10587;BME280;5341;47.606;7.576;2023-03-21T10:30:55;98876.13;;;17.11;50.52
10587;BME280;5341;47.606;7.576;2023-03-21T10:33:28;98880.81;;;17.22;50.94
10587;BME280;5341;47.606;7.576;2023-03-21T10:36:00;98879.25;;;17.33;50.23
10587;BME280;5341;47.606;7.576;2023-03-21T10:38:29;98865.81;;;17.45;50.01
10587;BME280;5341;47.606;7.576;2023-03-21T10:40:56;98864.22;;;17.55;50.34
10587;BME280;5341;47.606;7.576;2023-03-21T10:43:33;98861.59;;;17.67;49.45
10587;BME280;5341;47.606;7.576;2023-03-21T10:46:08;98862.75;;;17.78;48.92
10587;BME280;5341;47.606;7.576;2023-03-21T10:48:40;98867.41;;;17.89;48.76
10587;BME280;5341;47.606;7.576;2023-03-21T10:51:16;98861.25;;;18.00;49.17
10587;BME280;5341;47.606;7.576;2023-03-21T10:53:47;98859.28;;;18.07;48.97
10587;BME280;5341;47.606;7.576;2023-03-21T10:56:18;98848.81;;;18.11;49.68
10587;BME280;5341;47.606;7.576;2023-03-21T10:58:50;98851.06;;;18.14;49.55
10587;BME280;5341;47.606;7.576;2023-03-21T11:01:25;98854.53;;;18.21;48.80
10587;BME280;5341;47.606;7.576;2023-03-21T11:03:59;98846.75;;;18.25;49.06
10587;BME280;5341;47.606;7.576;2023-03-21T11:06:29;98843.97;;;18.31;48.80
10587;BME280;5341;47.606;7.576;2023-03-21T11:09:00;98846.81;;;18.36;47.80
10587;BME280;5341;47.606;7.576;2023-03-21T11:11:35;98835.53;;;18.51;46.97
10587;BME280;5341;47.606;7.576;2023-03-21T11:14:06;98844.16;;;18.60;47.52
10587;BME280;5341;47.606;7.576;2023-03-21T11:16:38;98841.22;;;18.61;48.17
10587;BME280;5341;47.606;7.576;2023-03-21T11:19:15;98841.28;;;18.73;46.75
10587;BME280;5341;47.606;7.576;2023-03-21T11:21:43;98836.94;;;18.84;47.21
10587;BME280;5341;47.606;7.576;2023-03-21T11:24:12;98834.56;;;18.87;47.72
10587;BME280;5341;47.606;7.576;2023-03-21T11:26:42;98842.47;;;18.89;47.31
10587;BME280;5341;47.606;7.576;2023-03-21T11:29:22;98832.00;;;18.92;46.42
10587;BME280;5341;47.606;7.576;2023-03-21T11:31:52;98831.06;;;18.98;46.09
10587;BME280;5341;47.606;7.576;2023-03-21T11:34:27;98824.13;;;19.02;47.34
10587;BME280;5341;47.606;7.576;2023-03-21T11:36:59;98828.50;;;19.03;47.51
10587;BME280;5341;47.606;7.576;2023-03-21T11:39:32;98827.19;;;19.06;47.59
10587;BME280;5341;47.606;7.576;2023-03-21T11:42:00;98812.31;;;19.09;47.27
10587;BME280;5341;47.606;7.576;2023-03-21T11:44:30;98812.91;;;19.11;47.92
10587;BME280;5341;47.606;7.576;2023-03-21T11:46:58;98816.22;;;19.13;48.07
10587;BME280;5341;47.606;7.576;2023-03-21T11:49:27;98811.16;;;19.16;48.00
10587;BME280;5341;47.606;7.576;2023-03-21T11:52:01;98803.38;;;19.20;46.99
10587;BME280;5341;47.606;7.576;2023-03-21T11:54:39;98807.47;;;19.22;46.54
10587;BME280;5341;47.606;7.576;2023-03-21T11:57:16;98803.47;;;19.25;45.93
10587;BME280;5341;47.606;7.576;2023-03-21T11:59:50;98800.31;;;19.28;45.86
10587;BME280;5341;47.606;7.576;2023-03-21T12:02:42;98792.50;;;19.31;45.25
10587;BME280;5341;47.606;7.576;2023-03-21T12:05:24;98788.72;;;19.32;45.09
10587;BME280;5341;47.606;7.576;2023-03-21T12:07:58;98790.97;;;19.36;45.71
10587;BME280;5341;47.606;7.576;2023-03-21T12:10:38;98789.66;;;19.38;46.29
10587;BME280;5341;47.606;7.576;2023-03-21T12:13:15;98778.94;;;19.55;45.68
10587;BME280;5341;47.606;7.576;2023-03-21T12:15:55;98768.69;;;19.85;45.00
10587;BME280;5341;47.606;7.576;2023-03-21T12:18:49;98762.06;;;19.93;44.60
10587;BME280;5341;47.606;7.576;2023-03-21T12:21:31;98761.16;;;19.87;44.45
10587;BME280;5341;47.606;7.576;2023-03-21T12:24:05;98761.59;;;19.84;44.49
10587;BME280;5341;47.606;7.576;2023-03-21T12:26:43;98756.66;;;19.81;44.42
10587;BME280;5341;47.606;7.576;2023-03-21T12:29:32;98746.06;;;19.80;45.91
10587;BME280;5341;47.606;7.576;2023-03-21T12:32:20;98745.81;;;19.81;46.67
10587;BME280;5341;47.606;7.576;2023-03-21T12:35:02;98746.00;;;19.92;46.78
10587;BME280;5341;47.606;7.576;2023-03-21T12:37:40;98747.94;;;20.08;46.80
10587;BME280;5341;47.606;7.576;2023-03-21T12:40:14;98739.28;;;20.11;46.47
10587;BME280;5341;47.606;7.576;2023-03-21T12:43:01;98748.13;;;20.18;45.08
10587;BME280;5341;47.606;7.576;2023-03-21T12:45:34;98732.91;;;20.34;45.75
10587;BME280;5341;47.606;7.576;2023-03-21T12:48:16;98740.69;;;20.42;46.96
10587;BME280;5341;47.606;7.576;2023-03-21T12:50:49;98729.56;;;20.43;46.29
10587;BME280;5341;47.606;7.576;2023-03-21T12:53:38;98730.63;;;20.42;46.02
10587;BME280;5341;47.606;7.576;2023-03-21T12:56:14;98726.50;;;20.40;45.71
10587;BME280;5341;47.606;7.576;2023-03-21T12:58:48;98730.28;;;20.39;45.33
10587;BME280;5341;47.606;7.576;2023-03-21T13:01:18;98721.66;;;20.42;45.20
10587;BME280;5341;47.606;7.576;2023-03-21T13:03:50;98719.28;;;20.45;44.75
10587;BME280;5341;47.606;7.576;2023-03-21T13:06:24;98717.47;;;20.51;44.88
10587;BME280;5341;47.606;7.576;2023-03-21T13:08:56;98716.97;;;20.54;45.47
10587;BME280;5341;47.606;7.576;2023-03-21T13:11:28;98707.50;;;20.57;44.48
10587;BME280;5341;47.606;7.576;2023-03-21T13:14:00;98709.75;;;20.60;44.58
10587;BME280;5341;47.606;7.576;2023-03-21T13:16:32;98702.72;;;20.64;44.56
10587;BME280;5341;47.606;7.576;2023-03-21T13:19:09;98698.78;;;20.93;44.70
10587;BME280;5341;47.606;7.576;2023-03-21T13:21:49;98697.81;;;20.99;44.22
10587;BME280;5341;47.606;7.576;2023-03-21T13:24:24;98693.19;;;21.00;44.79
10587;BME280;5341;47.606;7.576;2023-03-21T13:26:58;98688.72;;;21.11;45.13
10587;BME280;5341;47.606;7.576;2023-03-21T13:29:32;98687.63;;;21.12;45.46
10587;BME280;5341;47.606;7.576;2023-03-21T13:32:08;98684.09;;;21.11;45.09
10587;BME280;5341;47.606;7.576;2023-03-21T13:34:39;98678.31;;;21.07;45.16
10587;BME280;5341;47.606;7.576;2023-03-21T13:37:14;98677.75;;;21.05;45.35
10587;BME280;5341;47.606;7.576;2023-03-21T13:39:45;98680.72;;;21.04;45.71
10587;BME280;5341;47.606;7.576;2023-03-21T13:42:20;98680.00;;;21.09;46.44
10587;BME280;5341;47.606;7.576;2023-03-21T13:44:59;98683.97;;;21.23;43.73
10587;BME280;5341;47.606;7.576;2023-03-21T13:47:38;98674.81;;;21.51;43.76
10587;BME280;5341;47.606;7.576;2023-03-21T13:50:25;98669.03;;;21.69;43.75